Terminal Aerodrome Forecast
Issued by NWS

Home | Current Version | Previous Version | Text Only | Print | Product List | Glossary On
Versions: 1 2 3 4 5 6 7 8 9 10 11 12 13 14 15 16 17 18 19 20 21
170
FTUS41 KGYX 132320
TAFRKD
TAF
KRKD 132320Z 1400/1424 34015G25KT 4SM -SN BKN035
      TEMPO 1400/1403 1 1/2SM -SN BKN025
     FM140300 31015G25KT P6SM BKN040
     FM141800 29011KT P6SM SKC
      AMD LTD TO CLD VIS AND WIND=

USA.gov is the U.S. government's official web portal to all federal, state and local government web resources and services.